Time;durP1;ratioP1;P1;durP2;ratioP2;P2;SDS_P1;SDS_P2;PMS_P1;PMS_P2;Temp;Humidity;BMP_temperature;BMP_pressure;BME280_temperature;BME280_humidity;BME280_pressure;Samples;Min_cycle;Max_cycle;Signal;HPM_P1;HPM_P2
2022/07/06 00:00:37;;;;;;;0.30;0.30;;;;;;;18.62;42.45;101935.78;5166492;28;20025;-80
2022/07/06 00:03:08;;;;;;;1.00;0.82;;;;;;;18.56;43.16;101937.75;5200769;28;20039;-79
2022/07/06 00:05:41;;;;;;;0.40;0.40;;;;;;;18.52;43.41;101930.84;5203240;28;20118;-79
2022/07/06 00:08:12;;;;;;;0.65;0.63;;;;;;;18.38;43.57;101938.53;5183443;28;20505;-79
2022/07/06 00:10:43;;;;;;;0.60;0.60;;;;;;;18.39;42.76;101930.50;5197216;28;20041;-79
2022/07/06 00:13:16;;;;;;;0.30;0.30;;;;;;;18.37;42.79;101935.00;5184805;28;20047;-80
2022/07/06 00:15:47;;;;;;;0.70;0.70;;;;;;;18.35;43.20;101931.53;5202813;28;20041;-82
2022/07/06 00:18:18;;;;;;;0.20;0.20;;;;;;;18.36;42.70;101933.25;5200910;28;20048;-79
2022/07/06 00:20:48;;;;;;;0.70;0.70;;;;;;;18.24;42.99;101931.13;5204222;28;20044;-80
2022/07/06 00:23:19;;;;;;;2.05;1.25;;;;;;;18.24;43.65;101939.09;5216264;28;20056;-80
2022/07/06 00:25:52;;;;;;;0.73;0.45;;;;;;;18.14;43.98;101932.41;5181888;28;20107;-81
2022/07/06 00:28:23;;;;;;;2.17;0.60;;;;;;;18.12;43.85;101926.28;5200164;28;20109;-80
2022/07/06 00:30:54;;;;;;;0.30;0.30;;;;;;;18.12;42.76;101931.59;5175306;28;20111;-81
2022/07/06 00:33:25;;;;;;;1.98;1.35;;;;;;;18.03;44.34;101932.84;5216772;28;20044;-79
2022/07/06 00:35:55;;;;;;;0.30;0.30;;;;;;;18.03;43.46;101925.72;5179704;28;20517;-81
2022/07/06 00:38:26;;;;;;;0.30;0.30;;;;;;;17.96;43.28;101921.56;5201324;28;20033;-79
2022/07/06 00:40:56;;;;;;;1.08;0.75;;;;;;;17.93;43.43;101919.88;5183661;28;20153;-79
2022/07/06 00:43:46;;;;;;;0.20;0.20;;;;;;;17.91;43.39;101927.03;5210672;28;20120;-79
2022/07/06 00:46:23;;;;;;;1.08;0.60;;;;;;;17.88;43.01;101929.81;5182511;28;20086;-80
2022/07/06 00:48:54;;;;;;;0.40;0.40;;;;;;;17.86;43.07;101936.97;5196026;28;20156;-80
2022/07/06 00:51:29;;;;;;;0.20;0.20;;;;;;;17.88;43.61;101937.78;5197746;28;20131;-81
2022/07/06 00:54:04;;;;;;;0.28;0.28;;;;;;;17.81;44.00;101938.06;5196368;28;20031;-79
2022/07/06 00:56:35;;;;;;;5.15;0.43;;;;;;;17.76;43.21;101943.56;5195154;28;20448;-80
2022/07/06 00:59:06;;;;;;;0.20;0.20;;;;;;;17.73;43.16;101946.31;5184110;28;20033;-81
2022/07/06 01:01:36;;;;;;;0.30;0.30;;;;;;;17.72;42.90;101941.97;5180792;28;20079;-81
2022/07/06 01:04:10;;;;;;;0.40;0.40;;;;;;;17.70;43.05;101943.78;5218047;28;20056;-79
2022/07/06 01:06:40;;;;;;;0.40;0.40;;;;;;;17.68;43.13;101948.28;5197410;28;20476;-81
2022/07/06 01:09:11;;;;;;;0.65;0.57;;;;;;;17.67;43.22;101944.78;5183043;28;20052;-80
2022/07/06 01:11:41;;;;;;;0.40;0.40;;;;;;;17.64;43.24;101952.00;5211489;28;20040;-83
2022/07/06 01:14:14;;;;;;;0.82;0.82;;;;;;;17.61;43.15;101942.34;5211723;28;20017;-83
2022/07/06 01:16:45;;;;;;;0.28;0.28;;;;;;;17.56;43.34;101945.16;5224047;28;20419;-79
2022/07/06 01:19:16;;;;;;;0.55;0.55;;;;;;;17.57;43.01;101944.22;5219236;28;20041;-79
2022/07/06 01:21:47;;;;;;;0.30;0.30;;;;;;;17.54;43.27;101944.38;5199696;28;20040;-82
2022/07/06 01:24:17;;;;;;;0.60;0.60;;;;;;;17.54;43.44;101947.03;5182031;28;20095;-82
2022/07/06 01:26:48;;;;;;;0.20;0.20;;;;;;;17.51;43.91;101947.13;5180705;28;20037;-81
2022/07/06 01:29:19;;;;;;;0.22;0.22;;;;;;;17.50;43.37;101950.69;5183735;28;20028;-80
2022/07/06 01:31:50;;;;;;;0.20;0.20;;;;;;;17.49;43.22;101948.97;5184841;28;20044;-79
2022/07/06 01:34:20;;;;;;;0.63;0.40;;;;;;;17.48;43.87;101946.38;5199083;28;20025;-80
2022/07/06 01:36:51;;;;;;;0.32;0.32;;;;;;;17.45;43.36;101948.22;5180419;28;20486;-80
2022/07/06 01:39:22;;;;;;;0.30;0.30;;;;;;;17.45;44.11;101944.69;5180735;28;20369;-79
2022/07/06 01:41:52;;;;;;;0.40;0.40;;;;;;;17.41;43.70;101940.41;5202505;28;20051;-80
2022/07/06 01:44:23;;;;;;;0.43;0.43;;;;;;;17.41;43.41;101945.72;5182563;28;20047;-82
2022/07/06 01:46:53;;;;;;;0.43;0.35;;;;;;;17.37;44.35;101936.16;5179644;28;20041;-82
2022/07/06 01:49:24;;;;;;;0.20;0.20;;;;;;;17.34;43.59;101939.78;5185085;28;20061;-79
2022/07/06 01:51:54;;;;;;;0.30;0.30;;;;;;;17.30;43.59;101938.16;5195560;28;20100;-78
2022/07/06 01:54:25;;;;;;;0.25;0.25;;;;;;;17.27;43.72;101932.97;5184761;28;20060;-80
2022/07/06 01:56:55;;;;;;;0.35;0.35;;;;;;;17.24;43.83;101933.94;5212251;28;20045;-81
2022/07/06 01:59:26;;;;;;;0.20;0.20;;;;;;;17.23;43.74;101931.34;5203306;28;20044;-79
2022/07/06 02:01:57;;;;;;;0.30;0.30;;;;;;;17.19;43.57;101930.59;5196274;28;20054;-82
2022/07/06 02:04:27;;;;;;;0.45;0.30;;;;;;;17.15;43.71;101939.56;5182215;28;20033;-80
2022/07/06 02:06:58;;;;;;;0.30;0.30;;;;;;;17.15;43.84;101934.25;5182117;28;20071;-81
2022/07/06 02:09:28;;;;;;;0.38;0.38;;;;;;;17.11;43.68;101927.34;5185082;28;20052;-78
2022/07/06 02:11:59;;;;;;;0.43;0.43;;;;;;;17.09;43.82;101937.13;5180978;28;20328;-79
2022/07/06 02:14:29;;;;;;;0.30;0.30;;;;;;;17.07;43.88;101925.72;5216769;28;20029;-79
2022/07/06 02:17:00;;;;;;;0.60;0.60;;;;;;;17.06;43.81;101934.59;5195067;28;20049;-79
2022/07/06 02:19:30;;;;;;;0.47;0.47;;;;;;;17.03;44.27;101930.25;5184889;28;20091;-80
2022/07/06 02:22:01;;;;;;;0.30;0.30;;;;;;;16.99;44.09;101929.50;5197196;28;20041;-79
2022/07/06 02:24:31;;;;;;;1.45;0.75;;;;;;;16.98;43.74;101933.06;5201421;28;20116;-79
2022/07/06 02:27:02;;;;;;;0.20;0.20;;;;;;;16.97;43.85;101936.66;5197470;28;20119;-82
2022/07/06 02:29:33;;;;;;;0.20;0.20;;;;;;;16.94;43.90;101931.44;5187641;28;20544;-82
2022/07/06 02:32:04;;;;;;;0.40;0.40;;;;;;;16.89;44.24;101930.72;5181509;28;20048;-80
2022/07/06 02:34:34;;;;;;;0.35;0.35;;;;;;;16.89;44.13;101921.88;5182970;28;20579;-81
2022/07/06 02:37:08;;;;;;;0.43;0.43;;;;;;;16.87;44.17;101924.59;5197806;28;20081;-83
2022/07/06 02:39:39;;;;;;;0.38;0.38;;;;;;;16.86;44.35;101916.72;5215570;28;20033;-80
2022/07/06 02:42:09;;;;;;;0.30;0.30;;;;;;;16.83;44.41;101923.84;5197563;28;20442;-80
2022/07/06 02:44:42;;;;;;;1.35;1.02;;;;;;;16.83;44.24;101922.97;5201101;28;20562;-82
2022/07/06 02:47:13;;;;;;;0.38;0.38;;;;;;;16.82;44.24;101927.41;5203656;28;20040;-84
2022/07/06 02:49:43;;;;;;;0.43;0.43;;;;;;;16.80;44.53;101928.38;5235067;28;20033;-84
2022/07/06 02:56:12;;;;;;;0.30;0.30;;;;;;;16.73;44.46;101935.66;5215171;28;20075;-83
2022/07/06 02:58:42;;;;;;;0.20;0.20;;;;;;;16.72;44.02;101936.59;5188893;28;20044;-80
2022/07/06 03:01:13;;;;;;;0.22;0.22;;;;;;;16.68;44.71;101942.91;5201198;28;20059;-79
2022/07/06 03:03:43;;;;;;;0.38;0.38;;;;;;;16.65;44.65;101943.00;5184209;28;20043;-81
2022/07/06 03:06:14;;;;;;;0.70;0.70;;;;;;;16.63;44.79;101935.13;5200764;28;20095;-80
2022/07/06 03:08:45;;;;;;;0.30;0.30;;;;;;;16.62;44.95;101943.09;5201786;28;20064;-83
2022/07/06 03:11:16;;;;;;;0.82;0.82;;;;;;;16.59;44.81;101945.88;5219793;28;20982;-81
2022/07/06 03:13:46;;;;;;;0.22;0.22;;;;;;;16.57;44.51;101942.41;5204202;28;20525;-81
2022/07/06 03:16:17;;;;;;;0.40;0.40;;;;;;;16.53;44.89;101941.63;5201006;28;20049;-80
2022/07/06 03:18:50;;;;;;;0.30;0.30;;;;;;;16.53;44.90;101946.94;5203860;28;20048;-83
2022/07/06 03:21:21;;;;;;;0.20;0.20;;;;;;;16.50;44.52;101945.25;5212863;28;20037;-82
2022/07/06 03:23:51;;;;;;;0.40;0.35;;;;;;;16.47;45.10;101948.00;5199639;28;20510;-80
2022/07/06 03:26:22;;;;;;;0.35;0.35;;;;;;;16.45;44.95;101948.97;5180941;28;20144;-81
2022/07/06 03:28:53;;;;;;;0.57;0.57;;;;;;;16.44;45.04;101952.53;5198213;28;20452;-80
2022/07/06 03:31:23;;;;;;;0.40;0.40;;;;;;;16.42;45.13;101949.03;5205512;28;20262;-83
2022/07/06 03:33:54;;;;;;;0.30;0.30;;;;;;;16.39;44.89;101943.88;5199335;28;20040;-81
2022/07/06 03:36:24;;;;;;;0.35;0.35;;;;;;;16.35;44.99;101951.91;5202449;28;20045;-82
2022/07/06 03:38:57;;;;;;;0.38;0.32;;;;;;;16.35;45.09;101946.59;5201561;28;20138;-82
2022/07/06 03:41:28;;;;;;;0.30;0.30;;;;;;;16.32;45.17;101949.34;5205752;28;20044;-84
2022/07/06 03:43:59;;;;;;;0.85;0.85;;;;;;;16.30;44.89;101951.19;5202490;28;20036;-83
2022/07/06 03:46:29;;;;;;;0.20;0.20;;;;;;;16.27;45.19;101951.28;5216366;28;20273;-80
2022/07/06 03:49:00;;;;;;;0.35;0.35;;;;;;;16.25;45.01;101953.09;5203040;28;20041;-80
2022/07/06 03:51:33;;;;;;;0.30;0.30;;;;;;;16.23;45.60;101952.31;5193347;28;20041;-81
2022/07/06 03:54:04;;;;;;;0.50;0.50;;;;;;;16.22;45.69;101961.16;5196854;28;20040;-81
2022/07/06 03:56:34;;;;;;;0.40;0.40;;;;;;;16.18;45.81;101954.22;5199954;28;20041;-80
2022/07/06 03:59:05;;;;;;;0.35;0.35;;;;;;;16.18;46.09;101959.50;5183085;28;20051;-80
2022/07/06 04:01:35;;;;;;;0.82;0.82;;;;;;;16.17;45.38;101958.66;5199584;28;20049;-80
2022/07/06 04:04:09;;;;;;;0.30;0.30;;;;;;;16.15;45.57;101957.81;5199253;28;20032;-81
2022/07/06 04:06:39;;;;;;;2.92;1.08;;;;;;;16.11;45.55;101961.50;5215711;28;20041;-80
2022/07/06 04:09:10;;;;;;;0.55;0.55;;;;;;;16.13;45.49;101961.44;5200921;28;20074;-79
2022/07/06 04:11:41;;;;;;;1.17;0.50;;;;;;;16.12;45.94;101967.66;5200209;28;20048;-82
2022/07/06 04:14:11;;;;;;;0.20;0.20;;;;;;;16.09;46.07;101960.66;5216535;28;20036;-79
2022/07/06 04:16:42;;;;;;;0.57;0.57;;;;;;;16.06;45.78;101963.41;5198099;28;20084;-80
2022/07/06 04:19:12;;;;;;;0.22;0.22;;;;;;;16.07;45.91;101961.63;5200950;28;20047;-80
2022/07/06 04:21:43;;;;;;;0.30;0.30;;;;;;;16.05;45.98;101967.84;5183962;28;20060;-82
2022/07/06 04:24:14;;;;;;;0.28;0.28;;;;;;;16.03;46.63;101968.81;5200929;28;20227;-84
2022/07/06 04:26:44;;;;;;;1.77;1.23;;;;;;;16.02;46.12;101962.63;5226785;28;20033;-84
2022/07/06 04:29:18;;;;;;;0.20;0.20;;;;;;;16.01;46.08;101962.69;5231234;28;20033;-80
2022/07/06 04:31:48;;;;;;;0.30;0.30;;;;;;;15.99;46.84;101957.41;5210040;28;20036;-80
2022/07/06 04:34:19;;;;;;;0.55;0.55;;;;;;;15.99;46.46;101962.69;5217057;28;20037;-80
2022/07/06 04:36:49;;;;;;;0.52;0.52;;;;;;;15.99;46.96;101968.00;5200564;28;20134;-84
2022/07/06 04:39:20;;;;;;;0.55;0.55;;;;;;;15.95;46.22;101963.72;5216057;28;20033;-82
2022/07/06 04:41:50;;;;;;;0.38;0.30;;;;;;;15.97;46.43;101974.25;5192059;28;20047;-82
2022/07/06 04:44:21;;;;;;;0.40;0.40;;;;;;;15.96;46.83;101962.81;5190800;28;20596;-80
2022/07/06 04:46:51;;;;;;;0.50;0.50;;;;;;;15.97;46.80;101963.66;5184574;28;20448;-81
2022/07/06 04:49:22;;;;;;;0.30;0.30;;;;;;;15.97;47.02;101966.31;5200107;28;20033;-80
2022/07/06 04:51:53;;;;;;;0.20;0.20;;;;;;;15.96;47.13;101967.22;5198824;28;20033;-81
2022/07/06 04:54:24;;;;;;;0.45;0.45;;;;;;;15.97;47.07;101966.31;5191794;28;20044;-80
2022/07/06 04:56:54;;;;;;;0.57;0.57;;;;;;;15.96;47.31;101962.81;5200384;28;20040;-80
2022/07/06 04:59:25;;;;;;;0.35;0.35;;;;;;;15.96;46.99;101965.47;5172584;28;20032;-80
2022/07/06 05:01:55;;;;;;;0.40;0.40;;;;;;;15.97;47.28;101969.84;5204534;28;20448;-79
2022/07/06 05:04:26;;;;;;;3.13;1.27;;;;;;;15.98;47.33;101976.88;5170751;28;20787;-79
2022/07/06 05:06:56;;;;;;;0.30;0.30;;;;;;;15.99;47.37;101975.09;5168174;28;20710;-79
2022/07/06 05:09:27;;;;;;;1.70;1.23;;;;;;;15.96;48.52;101973.41;5201760;28;20029;-79
2022/07/06 05:11:57;;;;;;;0.70;0.70;;;;;;;15.98;47.83;101965.41;5200836;28;20037;-79
2022/07/06 05:14:28;;;;;;;0.57;0.57;;;;;;;15.99;47.93;101968.00;5186078;28;20517;-79
2022/07/06 05:16:58;;;;;;;1.45;0.47;;;;;;;16.01;48.46;101963.53;5201025;28;20049;-79
2022/07/06 05:19:29;;;;;;;0.40;0.40;;;;;;;15.96;47.73;101968.09;5185332;28;20041;-79
2022/07/06 05:21:59;;;;;;;0.38;0.38;;;;;;;15.99;48.45;101968.00;5194412;28;20088;-79
2022/07/06 05:24:30;;;;;;;0.20;0.20;;;;;;;16.01;48.14;101976.75;5217130;28;20040;-79
2022/07/06 05:27:00;;;;;;;0.47;0.47;;;;;;;16.00;48.08;101972.38;5185938;28;20052;-79
2022/07/06 05:29:30;;;;;;;2.08;0.35;;;;;;;16.00;48.49;101975.03;5173491;28;20133;-80
2022/07/06 05:32:01;;;;;;;1.08;0.73;;;;;;;16.00;48.48;101975.03;5201819;28;20044;-79
2022/07/06 05:34:32;;;;;;;0.90;0.60;;;;;;;16.01;48.67;101976.75;5174129;28;20058;-79
2022/07/06 05:37:03;;;;;;;0.95;0.77;;;;;;;16.01;48.83;101981.22;5198102;28;20485;-79
2022/07/06 05:39:33;;;;;;;0.40;0.40;;;;;;;16.02;48.54;101973.22;5190537;28;20078;-80
2022/07/06 05:42:05;;;;;;;0.40;0.40;;;;;;;16.03;48.81;101969.66;5183647;28;20041;-79
2022/07/06 05:44:36;;;;;;;0.73;0.73;;;;;;;16.03;49.34;101974.94;5183594;28;20587;-79
2022/07/06 05:50:14;;;;;;;0.20;0.20;;;;;;;16.07;51.47;101980.16;5200059;28;20017;-79
2022/07/06 05:52:56;;;;;;;0.98;0.98;;;;;;;16.07;49.75;101969.56;5182883;28;20048;-79
2022/07/06 05:55:27;;;;;;;1.27;0.95;;;;;;;16.15;50.68;101978.16;5195188;28;20751;-80
2022/07/06 05:57:57;;;;;;;0.68;0.68;;;;;;;16.12;49.85;101983.53;5211822;28;20047;-80
2022/07/06 06:00:28;;;;;;;0.22;0.22;;;;;;;16.12;50.78;101983.53;5219732;28;20025;-79
2022/07/06 06:02:59;;;;;;;0.50;0.50;;;;;;;16.12;50.40;101988.81;5206549;28;20037;-80
2022/07/06 06:05:30;;;;;;;0.68;0.68;;;;;;;16.11;54.26;101995.03;5176070;28;20021;-79
2022/07/06 06:08:03;;;;;;;1.00;1.00;;;;;;;16.11;52.72;101997.69;5196582;28;20819;-79
2022/07/06 06:10:34;;;;;;;0.20;0.20;;;;;;;16.19;51.61;101995.66;5195844;28;20045;-79
2022/07/06 06:13:04;;;;;;;0.20;0.20;;;;;;;16.21;51.58;102000.00;5202189;28;20139;-79
2022/07/06 06:15:38;;;;;;;1.30;1.20;;;;;;;16.22;51.96;102000.88;5190565;28;20033;-79
2022/07/06 06:18:08;;;;;;;2.22;0.43;;;;;;;16.21;51.44;101999.13;5217269;28;20029;-79
2022/07/06 06:20:39;;;;;;;0.57;0.40;;;;;;;16.19;52.71;102000.97;5185467;28;20400;-79
2022/07/06 06:23:11;;;;;;;0.30;0.30;;;;;;;16.23;51.09;101997.31;5192569;28;20087;-79
2022/07/06 06:25:42;;;;;;;0.30;0.30;;;;;;;16.20;53.43;101997.41;5186547;28;20164;-80
2022/07/06 06:28:13;;;;;;;0.20;0.20;;;;;;;16.22;51.51;102000.88;5188083;28;20111;-79
2022/07/06 06:30:43;;;;;;;0.28;0.28;;;;;;;16.30;51.51;102004.16;5203460;28;20037;-79
2022/07/06 06:33:16;;;;;;;0.30;0.30;;;;;;;16.38;51.99;102003.91;5188104;28;20033;-80
2022/07/06 06:35:51;;;;;;;0.57;0.57;;;;;;;16.40;52.24;102002.09;5200114;28;20048;-79
2022/07/06 06:38:25;;;;;;;0.20;0.20;;;;;;;16.39;52.37;101996.84;5185770;28;20028;-80
2022/07/06 06:40:57;;;;;;;0.20;0.20;;;;;;;16.34;52.20;102003.13;5185115;28;20041;-79
2022/07/06 06:43:28;;;;;;;0.20;0.20;;;;;;;16.37;53.14;101996.88;5216944;28;20033;-79
2022/07/06 06:46:01;;;;;;;;;;;;;;;16.43;52.98;102004.66;5201117;28;20037;-79
2022/07/06 06:48:31;;;;;;;0.20;0.20;;;;;;;16.42;52.26;102009.97;5193666;28;20095;-79
2022/07/06 06:51:09;;;;;;;0.20;0.20;;;;;;;16.48;52.91;102015.09;5171851;28;20041;-80
2022/07/06 06:53:39;;;;;;;0.20;0.20;;;;;;;16.47;51.20;102010.72;5171592;28;20067;-80
2022/07/06 06:56:10;;;;;;;0.25;0.25;;;;;;;16.53;53.21;102008.72;5184540;28;20093;-79
2022/07/06 06:58:41;;;;;;;0.50;0.50;;;;;;;16.55;51.48;102021.94;5166532;28;20043;-80
2022/07/06 07:01:16;;;;;;;0.30;0.30;;;;;;;16.55;51.11;102008.69;5204129;28;20072;-80
2022/07/06 07:03:47;;;;;;;0.50;0.50;;;;;;;16.52;51.72;102008.78;5192609;28;20079;-79
2022/07/06 07:06:18;;;;;;;3.05;0.85;;;;;;;16.60;51.27;102012.03;5205066;28;20041;-80
2022/07/06 07:08:49;;;;;;;0.20;0.20;;;;;;;16.73;52.56;102009.03;5181005;28;20569;-80
2022/07/06 07:11:22;;;;;;;0.20;0.20;;;;;;;16.72;51.96;102004.63;5188540;28;20037;-80
2022/07/06 07:13:53;;;;;;;0.20;0.20;;;;;;;16.71;53.54;102009.03;5205598;28;20533;-80
2022/07/06 07:16:26;;;;;;;0.20;0.20;;;;;;;16.89;51.92;102007.59;5188973;28;20056;-80
2022/07/06 07:18:56;;;;;;;;;;;;;;;16.92;52.06;102007.47;5184808;28;20028;-80
2022/07/06 07:21:27;;;;;;;0.20;0.20;;;;;;;16.95;52.48;102003.88;5194358;28;20258;-79
2022/07/06 07:23:57;;;;;;;1.95;1.08;;;;;;;16.90;51.74;102009.31;5207081;28;20052;-79
2022/07/06 07:26:29;;;;;;;1.10;0.52;;;;;;;16.92;51.71;102010.13;5185042;28;20124;-80
2022/07/06 07:28:59;;;;;;;0.25;0.25;;;;;;;16.95;52.05;102011.84;5200170;28;20092;-80
2022/07/06 07:31:29;;;;;;;0.32;0.32;;;;;;;17.01;51.03;102011.66;5206371;28;20049;-80
2022/07/06 07:34:00;;;;;;;0.20;0.20;;;;;;;17.02;51.86;102015.16;5202549;28;20025;-80
2022/07/06 07:36:31;;;;;;;0.30;0.30;;;;;;;17.05;51.42;102012.41;5182019;28;20052;-80
2022/07/06 07:39:03;;;;;;;0.20;0.20;;;;;;;17.11;51.51;102017.50;5204093;28;20117;-80
2022/07/06 07:41:34;;;;;;;0.22;0.22;;;;;;;17.14;51.13;102009.47;5206860;28;20124;-80
2022/07/06 07:44:04;;;;;;;0.55;0.38;;;;;;;17.23;51.11;102011.75;5188911;28;20144;-80
2022/07/06 07:46:35;;;;;;;0.20;0.20;;;;;;;17.26;50.63;102011.66;5188079;28;20048;-79
2022/07/06 07:49:10;;;;;;;0.40;0.40;;;;;;;17.40;50.33;102019.16;5187386;28;20144;-80
2022/07/06 07:51:41;;;;;;;0.20;0.20;;;;;;;17.39;50.19;102013.91;5185981;28;20134;-80
2022/07/06 07:54:12;;;;;;;0.30;0.30;;;;;;;17.40;50.89;102015.63;5187238;28;20473;-79
2022/07/06 07:56:45;;;;;;;0.20;0.20;;;;;;;17.37;50.31;102023.69;5202335;28;20049;-79
2022/07/06 07:59:16;;;;;;;0.25;0.25;;;;;;;17.44;49.88;102018.09;5188116;28;20029;-79
2022/07/06 08:01:46;;;;;;;0.10;0.10;;;;;;;17.49;50.04;102028.56;5186019;28;20128;-79
2022/07/06 08:04:18;;;;;;;0.38;0.38;;;;;;;17.49;49.82;102017.94;5203666;28;20124;-80
2022/07/06 08:06:48;;;;;;;0.30;0.30;;;;;;;17.47;50.14;102017.16;5201801;28;20045;-79
2022/07/06 08:09:19;;;;;;;1.85;0.63;;;;;;;17.48;50.45;102016.22;5188041;28;20043;-80
2022/07/06 08:11:50;;;;;;;0.40;0.40;;;;;;;17.51;49.97;102017.91;5170780;28;20545;-80
2022/07/06 08:14:20;;;;;;;0.20;0.20;;;;;;;17.51;50.32;102016.09;5203850;28;20510;-80
2022/07/06 08:16:51;;;;;;;0.30;0.30;;;;;;;17.53;50.09;102019.59;5204012;28;20056;-79
2022/07/06 08:19:22;;;;;;;0.25;0.25;;;;;;;17.58;49.55;102016.78;5205419;28;20306;-79
2022/07/06 08:21:52;;;;;;;1.10;0.75;;;;;;;17.51;49.70;102016.09;5181071;28;20064;-79
2022/07/06 08:24:23;;;;;;;0.20;0.20;;;;;;;17.52;49.65;102015.19;5173290;28;20020;-80
2022/07/06 08:26:54;;;;;;;0.35;0.30;;;;;;;17.52;49.71;102020.50;5182200;28;20175;-80
2022/07/06 08:29:24;;;;;;;0.20;0.20;;;;;;;17.61;50.61;102022.84;5188024;28;20040;-80
2022/07/06 08:31:55;;;;;;;0.20;0.20;;;;;;;17.54;50.19;102029.28;5201608;28;20064;-80
2022/07/06 08:34:25;;;;;;;0.20;0.20;;;;;;;17.46;51.23;102023.38;5187547;28;20060;-79
2022/07/06 08:36:56;;;;;;;0.77;0.60;;;;;;;17.44;50.64;102026.06;5183242;28;20464;-80
2022/07/06 08:39:27;;;;;;;0.75;0.75;;;;;;;17.44;51.60;102025.22;5202705;28;20107;-79
2022/07/06 08:41:59;;;;;;;0.20;0.20;;;;;;;17.53;50.76;102018.69;5184373;28;20127;-80
2022/07/06 08:44:30;;;;;;;0.20;0.20;;;;;;;17.52;50.69;102015.19;5199967;28;20029;-80
2022/07/06 08:47:05;;;;;;;0.30;0.30;;;;;;;17.57;50.05;102023.84;5185233;28;20048;-80
2022/07/06 08:49:36;;;;;;;0.30;0.30;;;;;;;17.55;50.45;102023.06;5206466;28;20033;-80
2022/07/06 08:52:08;;;;;;;0.30;0.30;;;;;;;17.67;50.55;102020.88;5200394;28;20108;-79
2022/07/06 08:54:38;;;;;;;0.30;0.30;;;;;;;17.67;50.32;102015.56;5185824;28;20039;-80
2022/07/06 08:57:09;;;;;;;0.20;0.20;;;;;;;17.72;49.84;102013.63;5195489;28;20043;-80
2022/07/06 08:59:40;;;;;;;0.60;0.60;;;;;;;17.68;50.48;102022.59;5210228;28;20095;-79
2022/07/06 09:02:14;;;;;;;0.43;0.43;;;;;;;17.75;50.40;102026.75;5195910;28;20057;-78
2022/07/06 09:04:47;;;;;;;0.20;0.20;;;;;;;17.84;50.15;102021.13;5228091;28;20021;-79
2022/07/06 09:07:19;;;;;;;0.40;0.40;;;;;;;17.86;49.26;102021.06;5211110;28;20097;-80
2022/07/06 09:09:51;;;;;;;0.22;0.22;;;;;;;17.90;49.56;102015.56;5201037;28;20056;-78
2022/07/06 09:12:22;;;;;;;0.30;0.30;;;;;;;17.99;49.43;102021.50;5209261;28;20064;-78
2022/07/06 09:14:57;;;;;;;0.30;0.30;;;;;;;18.05;49.07;102016.81;5198928;28;20045;-80
2022/07/06 09:17:28;;;;;;;0.20;0.20;;;;;;;18.18;48.93;102011.06;5189222;28;20049;-79
2022/07/06 09:19:59;;;;;;;0.22;0.22;;;;;;;18.18;48.59;102008.41;5186044;28;20025;-80
2022/07/06 09:22:32;;;;;;;0.20;0.20;;;;;;;18.16;48.68;102008.44;5161492;28;20047;-78
2022/07/06 09:25:14;;;;;;;0.65;0.63;;;;;;;18.20;48.77;102010.06;5178700;28;20464;-80
2022/07/06 09:27:54;;;;;;;20.17;0.80;;;;;;;18.08;48.68;102008.75;5184034;28;20432;-80
2022/07/06 09:30:27;;;;;;;0.20;0.20;;;;;;;18.17;48.65;102001.34;5182772;28;20032;-78
2022/07/06 09:32:59;;;;;;;0.30;0.30;;;;;;;18.28;48.50;102003.59;5181349;28;20017;-79
2022/07/06 09:35:35;;;;;;;0.20;0.20;;;;;;;18.34;48.27;102000.69;5192849;28;20037;-79
2022/07/06 09:38:12;;;;;;;0.30;0.30;;;;;;;18.47;47.87;102007.22;5190018;28;20021;-79
2022/07/06 09:40:44;;;;;;;0.30;0.30;;;;;;;18.46;47.97;101999.31;5203030;28;20036;-79
2022/07/06 09:43:20;;;;;;;0.20;0.20;;;;;;;18.50;48.02;102000.94;5184514;28;20108;-79
2022/07/06 09:45:55;;;;;;;0.70;0.70;;;;;;;18.54;47.90;102007.84;5186251;28;20096;-79
2022/07/06 09:48:27;;;;;;;0.20;0.20;;;;;;;18.59;47.15;102005.91;5184530;28;20087;-79
2022/07/06 09:51:02;;;;;;;0.20;0.20;;;;;;;18.71;47.03;101993.91;5203384;28;20406;-79
2022/07/06 09:53:37;;;;;;;0.57;0.57;;;;;;;18.70;47.22;101992.16;5188413;28;20291;-79
2022/07/06 09:56:08;;;;;;;0.30;0.30;;;;;;;18.79;46.94;101996.22;5183242;28;20041;-79
2022/07/06 09:58:39;;;;;;;0.20;0.20;;;;;;;18.78;47.25;101990.06;5168181;28;20113;-79
2022/07/06 10:01:25;;;;;;;0.52;0.52;;;;;;;18.86;46.73;102003.00;5183010;28;20045;-79
2022/07/06 10:03:55;;;;;;;0.30;0.30;;;;;;;18.98;46.30;102001.66;5200978;28;20044;-79
2022/07/06 10:06:27;;;;;;;0.28;0.28;;;;;;;19.03;45.76;102005.00;5183860;28;20029;-78
2022/07/06 10:08:59;;;;;;;0.30;0.30;;;;;;;19.12;45.43;102004.63;5201028;28;20025;-78
2022/07/06 10:11:33;;;;;;;0.20;0.20;;;;;;;19.14;45.59;102008.06;5200893;28;20045;-79
2022/07/06 10:14:06;;;;;;;0.35;0.35;;;;;;;19.16;45.25;102006.19;5164452;28;20024;-78
2022/07/06 10:16:46;;;;;;;4.65;1.20;;;;;;;19.11;44.89;102000.22;5192287;28;20154;-78
2022/07/06 10:19:19;;;;;;;0.20;0.20;;;;;;;19.15;45.06;101999.16;5185861;28;20515;-79
2022/07/06 10:21:51;;;;;;;;;;;;;;;19.30;44.87;101991.44;5179331;28;20052;-79
2022/07/06 10:24:24;;;;;;;0.30;0.30;;;;;;;19.29;44.24;101989.72;5204321;28;19913;-78
2022/07/06 10:26:55;;;;;;;0.15;0.15;;;;;;;19.32;44.40;101984.25;5199039;28;20072;-79
2022/07/06 10:29:26;;;;;;;25.40;2.03;;;;;;;19.45;44.08;101981.91;5183201;28;20061;-79
2022/07/06 10:31:57;;;;;;;0.20;0.20;;;;;;;19.35;43.70;101986.78;5189101;28;20071;-78
2022/07/06 10:34:27;;;;;;;0.20;0.20;;;;;;;19.39;43.76;101985.69;5182977;28;20113;-79
2022/07/06 10:36:58;;;;;;;0.22;0.22;;;;;;;19.33;42.29;101985.97;5182983;28;20063;-79
2022/07/06 10:42:51;;;;;;;0.30;0.30;;;;;;;19.44;42.87;101988.16;5200932;28;20056;-79
2022/07/06 10:45:45;;;;;;;0.30;0.30;;;;;;;19.50;43.07;101988.75;5184341;28;20021;-78
2022/07/06 10:48:17;;;;;;;0.80;0.52;;;;;;;19.70;41.86;101994.13;5202381;28;20048;-79
2022/07/06 10:50:52;;;;;;;0.70;0.50;;;;;;;19.73;42.42;101988.66;5179909;28;20045;-78
2022/07/06 10:53:24;;;;;;;0.52;0.50;;;;;;;19.71;42.27;101986.03;5199049;28;20120;-79
2022/07/06 10:55:56;;;;;;;0.20;0.20;;;;;;;19.77;42.24;101985.78;5171967;28;20043;-79
2022/07/06 10:58:52;;;;;;;0.30;0.30;;;;;;;19.75;41.96;101977.00;5204035;28;20037;-78
2022/07/06 11:01:28;;;;;;;0.30;0.30;;;;;;;19.71;41.79;101978.06;5220960;28;20061;-79
2022/07/06 11:03:59;;;;;;;0.20;0.20;;;;;;;19.85;42.16;101987.25;5198534;28;20092;-79
2022/07/06 11:06:33;;;;;;;0.20;0.20;;;;;;;19.93;42.47;101982.44;5198597;28;20112;-79
2022/07/06 11:09:09;;;;;;;0.25;0.25;;;;;;;19.79;41.64;101977.72;5187633;28;20032;-79
2022/07/06 11:11:48;;;;;;;0.20;0.20;;;;;;;19.90;41.59;101971.94;5203307;28;20739;-78
2022/07/06 11:14:21;;;;;;;0.20;0.20;;;;;;;19.79;41.37;101973.25;5205335;28;20127;-79
2022/07/06 11:16:52;;;;;;;0.20;0.20;;;;;;;19.95;41.61;101967.25;5219617;28;20691;-78
2022/07/06 11:19:23;;;;;;;6.78;1.00;;;;;;;20.12;41.91;101974.44;5194145;28;20111;-79
2022/07/06 11:22:15;;;;;;;5.03;1.40;;;;;;;20.18;41.24;101983.97;5185552;28;20091;-79
2022/07/06 11:24:46;;;;;;;0.45;0.40;;;;;;;20.26;41.83;101979.13;5184145;28;20081;-79
2022/07/06 11:27:22;;;;;;;0.52;0.40;;;;;;;20.34;41.58;101974.28;5196988;28;20068;-79
2022/07/06 11:29:54;;;;;;;3.83;1.38;;;;;;;20.30;41.31;101978.03;5193364;28;20033;-79
2022/07/06 11:32:26;;;;;;;0.90;0.85;;;;;;;20.37;41.55;101971.44;5185940;28;20753;-79
2022/07/06 11:35:00;;;;;;;0.20;0.20;;;;;;;20.20;40.69;101971.44;5186809;28;20063;-79
2022/07/06 11:37:30;;;;;;;0.30;0.30;;;;;;;20.31;41.35;101973.56;5186158;28;20060;-79
2022/07/06 11:40:06;;;;;;;0.20;0.20;;;;;;;20.38;41.51;101973.19;5205131;28;20379;-79
2022/07/06 11:42:37;;;;;;;0.25;0.25;;;;;;;20.48;41.23;101970.94;5186207;28;20071;-79
2022/07/06 11:45:09;;;;;;;4.07;1.10;;;;;;;20.57;41.11;101972.28;5204169;28;20040;-78
2022/07/06 11:47:39;;;;;;;0.20;0.20;;;;;;;20.58;40.68;101969.53;5183139;28;20091;-79
2022/07/06 11:50:19;;;;;;;0.20;0.20;;;;;;;20.59;41.06;101970.41;5186430;28;20025;-79
2022/07/06 11:52:52;;;;;;;0.28;0.28;;;;;;;20.59;40.78;101973.06;5184980;28;20052;-78
2022/07/06 11:55:22;;;;;;;0.20;0.20;;;;;;;20.71;40.87;101972.44;5195586;28;20098;-79
2022/07/06 11:57:57;;;;;;;0.20;0.20;;;;;;;20.88;40.97;101973.44;5187007;28;20045;-79